createdAt,value
2018-03-29T00:02:24.819Z,1.85
2018-03-29T00:04:52.321Z,2.33
2018-03-29T00:07:19.868Z,2.28
2018-03-29T00:09:47.437Z,2.20
2018-03-29T00:12:14.947Z,2.75
2018-03-29T00:14:42.453Z,2.05
2018-03-29T00:17:09.959Z,2.85
2018-03-29T00:19:37.465Z,2.72
2018-03-29T00:22:04.987Z,2.40
2018-03-29T00:24:32.527Z,2.90
2018-03-29T00:27:00.049Z,2.33
2018-03-29T00:29:27.600Z,3.00
2018-03-29T00:31:55.103Z,3.35
2018-03-29T00:34:22.593Z,3.12
2018-03-29T00:36:50.115Z,3.00
2018-03-29T00:39:17.700Z,3.12
2018-03-29T00:41:45.192Z,3.30
2018-03-29T00:44:12.736Z,3.30
2018-03-29T00:46:40.243Z,2.62
2018-03-29T00:49:07.752Z,3.03
2018-03-29T00:51:35.263Z,3.22
2018-03-29T00:54:02.797Z,2.70
2018-03-29T00:56:30.307Z,3.22
2018-03-29T00:58:57.826Z,2.80
2018-03-29T01:01:25.333Z,2.85
2018-03-29T01:03:52.839Z,3.00
2018-03-29T01:06:20.373Z,2.70
2018-03-29T01:08:47.921Z,3.10
2018-03-29T01:11:15.429Z,3.20
2018-03-29T01:13:42.932Z,3.00
2018-03-29T01:16:10.434Z,2.85
2018-03-29T01:18:37.994Z,3.17
2018-03-29T01:21:05.489Z,2.60
2018-03-29T01:23:33.036Z,3.53
2018-03-29T01:26:00.550Z,2.58
2018-03-29T01:28:28.063Z,2.70
2018-03-29T01:30:55.581Z,2.65
2018-03-29T01:33:23.063Z,2.65
2018-03-29T01:35:50.714Z,3.05
2018-03-29T01:38:18.220Z,3.42
2018-03-29T01:40:45.703Z,3.60
2018-03-29T01:43:13.210Z,3.37
2018-03-29T01:45:40.696Z,3.60
2018-03-29T01:48:08.636Z,3.15
2018-03-29T01:50:36.132Z,3.03
2018-03-29T01:53:03.635Z,3.30
2018-03-29T01:55:31.139Z,3.60
2018-03-29T01:57:58.818Z,3.78
2018-03-29T02:00:26.312Z,3.75
2018-03-29T02:02:53.796Z,2.90
2018-03-29T02:05:21.295Z,3.15
2018-03-29T02:07:48.871Z,3.65
2018-03-29T02:10:16.405Z,2.90
2018-03-29T02:12:43.980Z,4.22
2018-03-29T02:15:11.499Z,3.85
2018-03-29T02:17:39.008Z,3.70
2018-03-29T02:20:06.509Z,3.75
2018-03-29T02:22:33.996Z,4.50
2018-03-29T02:25:01.515Z,4.12
2018-03-29T02:27:29.045Z,3.03
2018-03-29T02:29:57.406Z,3.45
2018-03-29T02:32:25.186Z,3.40
2018-03-29T02:34:52.682Z,4.03
2018-03-29T02:37:20.183Z,4.10
2018-03-29T02:39:47.692Z,4.05
2018-03-29T02:42:15.206Z,4.22
2018-03-29T02:44:42.722Z,4.30
2018-03-29T02:47:10.241Z,4.03
2018-03-29T02:49:37.743Z,4.12
2018-03-29T02:52:05.239Z,4.15
2018-03-29T02:54:32.813Z,3.72
2018-03-29T02:57:00.349Z,3.92
2018-03-29T02:59:27.861Z,4.15
2018-03-29T03:01:55.344Z,3.95
2018-03-29T03:04:22.818Z,4.50
2018-03-29T03:06:50.305Z,4.15
2018-03-29T03:09:17.819Z,3.97
2018-03-29T03:11:45.324Z,4.28
2018-03-29T03:14:12.806Z,4.75
2018-03-29T03:16:40.307Z,4.80
2018-03-29T03:19:07.824Z,4.78
2018-03-29T03:21:35.313Z,3.75
2018-03-29T03:24:03.004Z,4.00
2018-03-29T03:26:30.510Z,3.83
2018-03-29T03:28:58.025Z,3.30
2018-03-29T03:31:25.525Z,3.87
2018-03-29T03:33:53.035Z,3.50
2018-03-29T03:36:20.520Z,3.78
2018-03-29T03:38:48.088Z,2.92
2018-03-29T03:41:15.582Z,3.28
2018-03-29T03:43:43.081Z,2.87
2018-03-29T03:46:10.585Z,3.67
2018-03-29T03:48:38.127Z,2.80
2018-03-29T03:51:05.678Z,3.70
2018-03-29T03:53:33.184Z,3.12
2018-03-29T03:56:00.687Z,2.50
2018-03-29T03:58:28.174Z,3.80
2018-03-29T04:00:55.728Z,2.95
2018-03-29T04:03:23.246Z,3.08
2018-03-29T04:05:50.983Z,3.30
2018-03-29T04:08:18.494Z,3.30
2018-03-29T04:10:46.100Z,3.90
2018-03-29T04:13:13.601Z,4.00
2018-03-29T04:15:41.124Z,3.80
2018-03-29T04:18:09.133Z,3.95
2018-03-29T04:20:36.635Z,2.80
2018-03-29T04:23:04.148Z,3.33
2018-03-29T04:25:39.021Z,3.45
2018-03-29T04:28:06.582Z,2.50
2018-03-29T04:30:34.104Z,3.25
2018-03-29T04:33:01.630Z,3.20
2018-03-29T04:35:29.122Z,3.22
2018-03-29T04:37:56.621Z,3.47
2018-03-29T04:40:24.116Z,2.75
2018-03-29T04:42:51.634Z,3.40
2018-03-29T04:45:19.150Z,3.00
2018-03-29T04:47:46.634Z,3.70
2018-03-29T04:50:14.155Z,3.05
2018-03-29T04:52:41.678Z,3.30
2018-03-29T04:55:09.177Z,2.95
2018-03-29T04:57:36.699Z,3.03
2018-03-29T05:00:04.188Z,3.45
2018-03-29T05:02:31.707Z,3.00
2018-03-29T05:04:59.188Z,3.10
2018-03-29T05:07:26.695Z,2.90
2018-03-29T05:09:54.198Z,3.58
2018-03-29T05:12:21.708Z,3.62
2018-03-29T05:14:49.214Z,3.65
2018-03-29T05:17:16.774Z,4.37
2018-03-29T05:19:44.270Z,3.87
2018-03-29T05:22:11.785Z,4.43
2018-03-29T05:24:39.284Z,3.70
2018-03-29T05:27:12.326Z,4.07
2018-03-29T05:29:39.812Z,4.55
2018-03-29T05:32:07.282Z,4.00
2018-03-29T05:34:34.802Z,4.53
2018-03-29T05:37:02.286Z,3.42
2018-03-29T05:39:29.774Z,3.45
2018-03-29T05:41:57.325Z,3.83
2018-03-29T05:44:25.186Z,4.53
2018-03-29T05:46:52.818Z,3.33
2018-03-29T05:49:20.280Z,3.30
2018-03-29T05:51:47.932Z,3.97
2018-03-29T05:54:15.446Z,3.25
2018-03-29T05:56:42.930Z,2.80
2018-03-29T05:59:10.532Z,3.97
2018-03-29T06:01:38.080Z,3.35
2018-03-29T06:04:05.676Z,3.70
2018-03-29T06:06:33.178Z,3.60
2018-03-29T06:09:00.700Z,3.30
2018-03-29T06:11:28.324Z,4.40
2018-03-29T06:14:01.290Z,3.40
2018-03-29T06:16:28.786Z,3.60
2018-03-29T06:18:59.108Z,3.95
2018-03-29T06:21:26.611Z,4.18
2018-03-29T06:23:54.120Z,3.80
2018-03-29T06:26:21.622Z,3.58
2018-03-29T06:28:49.107Z,3.45
2018-03-29T06:31:16.636Z,3.70
2018-03-29T06:33:44.923Z,4.40
2018-03-29T06:36:12.424Z,3.65
2018-03-29T06:38:40.065Z,4.15
2018-03-29T06:41:07.544Z,3.80
2018-03-29T06:43:35.047Z,6.32
2018-03-29T06:46:02.581Z,7.07
2018-03-29T06:48:30.088Z,5.00
2018-03-29T06:50:58.635Z,4.70
2018-03-29T06:53:26.114Z,4.43
2018-03-29T06:55:53.652Z,5.03
2018-03-29T06:58:21.162Z,3.92
2018-03-29T07:00:48.694Z,4.40
2018-03-29T07:03:16.177Z,4.97
2018-03-29T07:05:43.666Z,4.85
2018-03-29T07:08:11.177Z,4.72
2018-03-29T07:10:38.678Z,4.95
2018-03-29T07:13:06.238Z,5.15
2018-03-29T07:15:34.200Z,10.13
2018-03-29T07:18:01.692Z,8.23
2018-03-29T07:20:29.201Z,6.00
2018-03-29T07:22:56.706Z,6.47
2018-03-29T07:25:24.250Z,5.35
2018-03-29T07:27:51.794Z,5.80
2018-03-29T07:30:19.322Z,5.68
2018-03-29T07:32:46.808Z,5.22
2018-03-29T07:35:14.292Z,4.18
2018-03-29T07:37:41.775Z,4.05
2018-03-29T07:40:09.283Z,4.95
2018-03-29T07:42:36.774Z,4.00
2018-03-29T07:45:04.270Z,5.15
2018-03-29T07:47:31.834Z,4.25
2018-03-29T07:49:59.349Z,5.50
2018-03-29T07:52:26.973Z,4.62
2018-03-29T07:54:54.866Z,3.85
2018-03-29T07:57:22.433Z,3.85
2018-03-29T07:59:49.911Z,4.03
2018-03-29T08:02:17.426Z,3.90
2018-03-29T08:04:45.352Z,4.50
2018-03-29T08:07:13.234Z,4.28
2018-03-29T08:09:40.742Z,4.65
2018-03-29T08:12:08.220Z,4.35
2018-03-29T08:14:35.758Z,3.50
2018-03-29T08:17:03.298Z,6.07
2018-03-29T08:19:30.824Z,10.93
2018-03-29T08:21:58.362Z,4.30
2018-03-29T08:24:25.886Z,4.60
2018-03-29T08:26:53.428Z,5.10
2018-03-29T08:29:20.916Z,4.10
2018-03-29T08:31:48.440Z,4.53
2018-03-29T08:34:15.922Z,4.20
2018-03-29T08:36:43.493Z,4.00
2018-03-29T08:39:11.031Z,4.43
2018-03-29T08:41:38.565Z,4.50
2018-03-29T08:44:06.031Z,4.17
2018-03-29T08:46:33.571Z,3.67
2018-03-29T08:49:01.285Z,3.50
2018-03-29T08:51:28.816Z,4.83
2018-03-29T08:53:56.319Z,3.80
2018-03-29T08:56:23.820Z,4.10
2018-03-29T08:58:51.326Z,5.07
2018-03-29T09:01:18.820Z,3.80
2018-03-29T09:03:46.325Z,4.50
2018-03-29T09:06:13.848Z,4.20
2018-03-29T09:08:41.354Z,6.73
2018-03-29T09:11:08.858Z,3.90
2018-03-29T09:13:36.338Z,4.53
2018-03-29T09:16:03.874Z,3.97
2018-03-29T09:18:31.389Z,4.67
2018-03-29T09:20:58.927Z,4.07
2018-03-29T09:23:26.418Z,4.43
2018-03-29T09:25:53.924Z,3.97
2018-03-29T09:28:21.416Z,4.10
2018-03-29T09:30:48.925Z,3.87
2018-03-29T09:33:16.551Z,3.93
2018-03-29T09:35:44.042Z,3.40
2018-03-29T09:38:11.569Z,3.77
2018-03-29T09:40:39.079Z,3.27
2018-03-29T09:43:06.649Z,3.77
2018-03-29T09:45:34.155Z,2.70
2018-03-29T09:48:01.656Z,3.43
2018-03-29T09:50:29.146Z,3.77
2018-03-29T09:52:56.654Z,3.80
2018-03-29T09:55:24.216Z,3.37
2018-03-29T09:57:51.715Z,3.73
2018-03-29T10:00:38.034Z,3.20
2018-03-29T10:03:09.418Z,3.50
2018-03-29T10:05:37.751Z,3.00
2018-03-29T10:08:05.296Z,3.13
2018-03-29T10:10:32.811Z,3.90
2018-03-29T10:13:00.356Z,3.13
2018-03-29T10:15:27.941Z,3.40
2018-03-29T10:17:55.443Z,3.53
2018-03-29T10:20:22.952Z,3.10
2018-03-29T10:22:50.460Z,3.10
2018-03-29T10:25:17.982Z,3.00
2018-03-29T10:27:45.494Z,3.03
2018-03-29T10:30:13.025Z,2.87
2018-03-29T10:32:40.525Z,3.10
2018-03-29T10:35:08.008Z,3.80
2018-03-29T10:37:35.528Z,3.77
2018-03-29T10:40:03.620Z,2.93
2018-03-29T10:42:31.158Z,2.93
2018-03-29T10:44:58.656Z,3.30
2018-03-29T10:47:26.151Z,3.30
2018-03-29T10:49:53.670Z,3.60
2018-03-29T10:52:21.183Z,4.13
2018-03-29T10:54:48.755Z,3.60
2018-03-29T10:57:16.268Z,3.53
2018-03-29T10:59:43.787Z,3.37
2018-03-29T11:02:11.296Z,3.40
2018-03-29T11:04:38.797Z,3.77
2018-03-29T11:07:06.305Z,3.50
2018-03-29T11:09:33.848Z,3.43
2018-03-29T11:12:01.376Z,2.37
2018-03-29T11:14:28.912Z,2.67
2018-03-29T11:16:56.384Z,3.27
2018-03-29T11:19:23.866Z,2.80
2018-03-29T11:21:51.399Z,2.50
2018-03-29T11:24:18.895Z,3.37
2018-03-29T11:26:46.418Z,2.90
2018-03-29T11:29:13.935Z,3.20
2018-03-29T11:31:41.459Z,3.53
2018-03-29T11:34:08.934Z,3.60
2018-03-29T11:36:36.547Z,3.00
2018-03-29T11:39:04.097Z,3.50
2018-03-29T11:41:31.597Z,3.50
2018-03-29T11:43:59.119Z,3.30
2018-03-29T11:46:26.757Z,3.20
2018-03-29T11:48:54.350Z,3.63
2018-03-29T11:51:21.852Z,3.70
2018-03-29T11:53:49.342Z,3.77
2018-03-29T11:56:16.854Z,3.50
2018-03-29T11:58:44.382Z,3.90
2018-03-29T12:01:11.872Z,3.83
2018-03-29T12:03:39.362Z,3.33
2018-03-29T12:06:06.872Z,4.23
2018-03-29T12:08:34.360Z,3.60
2018-03-29T12:11:01.884Z,3.50
2018-03-29T12:13:29.390Z,4.37
2018-03-29T12:15:56.896Z,5.13
2018-03-29T12:18:24.384Z,4.40
2018-03-29T12:20:51.917Z,4.43
2018-03-29T12:23:19.409Z,4.27
2018-03-29T12:25:46.910Z,4.57
2018-03-29T12:28:14.545Z,4.03
2018-03-29T12:30:42.026Z,3.80
2018-03-29T12:33:09.517Z,3.53
2018-03-29T12:35:37.021Z,4.40
2018-03-29T12:38:04.520Z,3.63
2018-03-29T12:40:32.006Z,3.47
2018-03-29T12:42:59.538Z,3.87
2018-03-29T12:45:27.075Z,4.37
2018-03-29T12:47:54.591Z,4.00
2018-03-29T12:50:22.115Z,3.23
2018-03-29T12:52:49.596Z,3.80
2018-03-29T12:55:29.154Z,3.50
2018-03-29T12:58:09.106Z,3.70
2018-03-29T13:00:36.613Z,3.20
2018-03-29T13:03:04.111Z,3.47
2018-03-29T13:05:31.639Z,3.33
2018-03-29T13:07:59.214Z,3.60
2018-03-29T13:10:26.731Z,3.60
2018-03-29T13:12:54.247Z,3.80
2018-03-29T13:15:21.759Z,3.23
2018-03-29T13:17:49.286Z,3.33
2018-03-29T13:20:16.812Z,3.30
2018-03-29T13:22:44.354Z,3.57
2018-03-29T13:25:12.047Z,2.87
2018-03-29T13:27:39.571Z,2.80
2018-03-29T13:30:07.216Z,3.10
2018-03-29T13:32:34.700Z,3.07
2018-03-29T13:35:02.353Z,2.97
2018-03-29T13:37:29.842Z,3.10
2018-03-29T13:39:57.892Z,3.03
2018-03-29T13:42:25.485Z,2.90
2018-03-29T13:44:53.014Z,2.80
2018-03-29T13:47:20.503Z,2.80
2018-03-29T13:49:48.107Z,3.00
2018-03-29T13:52:15.615Z,2.90
2018-03-29T13:54:43.337Z,2.53
2018-03-29T13:57:14.790Z,2.90
2018-03-29T13:59:42.439Z,3.50
2018-03-29T14:02:10.459Z,2.50
2018-03-29T14:04:38.046Z,3.43
2018-03-29T14:07:05.559Z,2.70
2018-03-29T14:09:34.132Z,2.40
2018-03-29T14:12:02.090Z,3.00
2018-03-29T14:14:32.465Z,3.17
2018-03-29T14:16:59.992Z,2.80
2018-03-29T14:19:27.589Z,3.17
2018-03-29T14:21:55.129Z,2.77
2018-03-29T14:24:22.919Z,2.93
2018-03-29T14:26:50.532Z,3.50
2018-03-29T14:29:18.020Z,2.87
2018-03-29T14:31:45.594Z,2.73
2018-03-29T14:34:13.222Z,4.97
2018-03-29T14:36:40.778Z,2.67
2018-03-29T14:39:08.331Z,2.70
2018-03-29T14:41:36.320Z,1.70
2018-03-29T14:44:03.909Z,2.63
2018-03-29T14:46:31.456Z,2.40
2018-03-29T14:48:58.952Z,2.23
2018-03-29T14:51:26.431Z,2.30
2018-03-29T14:53:54.103Z,1.90
2018-03-29T14:56:21.955Z,2.07
2018-03-29T14:58:49.460Z,2.10
2018-03-29T15:01:16.971Z,1.97
2018-03-29T15:03:44.455Z,2.13
2018-03-29T15:06:11.963Z,1.80
2018-03-29T15:08:39.533Z,2.03
2018-03-29T15:11:07.029Z,2.10
2018-03-29T15:13:34.559Z,1.70
2018-03-29T15:16:02.072Z,2.17
2018-03-29T15:18:29.612Z,2.23
2018-03-29T15:20:57.161Z,2.20
2018-03-29T15:23:24.668Z,2.20
2018-03-29T15:25:52.168Z,2.00
2018-03-29T15:28:19.691Z,2.30
2018-03-29T15:30:47.188Z,2.73
2018-03-29T15:33:14.702Z,2.33
2018-03-29T15:35:42.198Z,1.60
2018-03-29T15:38:09.694Z,1.90
2018-03-29T15:40:38.631Z,1.67
2018-03-29T15:43:06.123Z,1.67
2018-03-29T15:45:33.641Z,1.53
2018-03-29T15:48:01.127Z,1.60
2018-03-29T15:50:28.659Z,1.87
2018-03-29T15:52:56.168Z,2.67
2018-03-29T15:55:23.679Z,1.90
2018-03-29T15:57:51.233Z,1.90
2018-03-29T16:00:18.741Z,1.50
2018-03-29T16:02:46.235Z,1.57
2018-03-29T16:05:13.774Z,1.60
2018-03-29T16:07:41.267Z,1.80
2018-03-29T16:10:08.898Z,1.57
2018-03-29T16:12:36.588Z,1.90
2018-03-29T16:15:04.160Z,1.30
2018-03-29T16:17:31.682Z,1.40
2018-03-29T16:19:59.224Z,1.70
2018-03-29T16:22:26.733Z,1.40
2018-03-29T16:24:54.244Z,1.47
2018-03-29T16:27:21.726Z,1.50
2018-03-29T16:29:49.257Z,1.33
2018-03-29T16:32:16.869Z,3.90
2018-03-29T16:34:44.365Z,2.10
2018-03-29T16:37:11.880Z,1.43
2018-03-29T16:39:39.391Z,1.93
2018-03-29T16:42:06.894Z,1.30
2018-03-29T16:44:34.476Z,1.43
2018-03-29T16:47:01.977Z,1.60
2018-03-29T16:49:29.519Z,1.17
2018-03-29T16:51:57.009Z,1.40
2018-03-29T16:54:24.644Z,1.67
2018-03-29T16:56:52.209Z,1.00
2018-03-29T16:59:19.784Z,1.57
2018-03-29T17:01:47.540Z,1.30
2018-03-29T17:04:15.059Z,1.77
2018-03-29T17:06:42.575Z,1.10
2018-03-29T17:09:10.079Z,1.30
2018-03-29T17:11:37.603Z,1.30
2018-03-29T17:14:05.113Z,1.33
2018-03-29T17:16:32.663Z,1.27
2018-03-29T17:19:00.274Z,1.10
2018-03-29T17:21:27.809Z,1.40
2018-03-29T17:23:55.280Z,1.23
2018-03-29T17:26:22.872Z,1.57
2018-03-29T17:28:50.360Z,1.33
2018-03-29T17:31:17.900Z,1.40
2018-03-29T17:33:45.460Z,1.23
2018-03-29T17:36:13.022Z,1.43
2018-03-29T17:38:40.553Z,1.37
2018-03-29T17:41:08.088Z,1.47
2018-03-29T17:43:35.587Z,1.53
2018-03-29T17:46:03.154Z,1.47
2018-03-29T17:48:30.695Z,1.47
2018-03-29T17:50:58.275Z,1.37
2018-03-29T17:53:25.853Z,1.73
2018-03-29T17:55:53.347Z,1.83
2018-03-29T17:58:20.834Z,3.30
2018-03-29T18:00:48.369Z,2.17
2018-03-29T18:03:15.876Z,1.70
2018-03-29T18:05:43.348Z,2.27
2018-03-29T18:08:10.913Z,2.40
2018-03-29T18:10:38.394Z,3.60
2018-03-29T18:13:05.945Z,2.90
2018-03-29T18:15:33.489Z,2.37
2018-03-29T18:18:00.996Z,2.30
2018-03-29T18:20:28.507Z,2.47
2018-03-29T18:22:55.999Z,11.13
2018-03-29T18:25:23.487Z,7.50
2018-03-29T18:27:51.073Z,6.20
2018-03-29T18:30:18.610Z,13.45
2018-03-29T18:32:46.121Z,23.80
2018-03-29T18:35:13.656Z,20.08
2018-03-29T18:37:41.203Z,13.15
2018-03-29T18:40:08.780Z,9.10
2018-03-29T18:42:36.331Z,10.35
2018-03-29T18:45:03.939Z,10.48
2018-03-29T18:47:31.506Z,10.23
2018-03-29T18:49:59.030Z,9.70
2018-03-29T18:52:26.674Z,9.27
2018-03-29T18:54:54.187Z,8.27
2018-03-29T18:57:21.775Z,6.97
2018-03-29T18:59:49.302Z,6.20
2018-03-29T19:02:16.857Z,5.37
2018-03-29T19:04:44.387Z,5.55
2018-03-29T19:07:11.906Z,6.18
2018-03-29T19:09:39.419Z,5.95
2018-03-29T19:12:06.984Z,7.05
2018-03-29T19:14:34.477Z,6.40
2018-03-29T19:17:02.126Z,5.53
2018-03-29T19:19:29.664Z,5.50
2018-03-29T19:21:57.177Z,4.60
2018-03-29T19:24:25.163Z,4.80
2018-03-29T19:26:52.691Z,4.90
2018-03-29T19:29:20.220Z,4.20
2018-03-29T19:31:47.788Z,5.05
2018-03-29T19:34:15.288Z,4.57
2018-03-29T19:36:42.822Z,37.22
2018-03-29T19:39:10.341Z,18.60
2018-03-29T19:41:38.250Z,7.97
2018-03-29T19:44:05.834Z,4.87
2018-03-29T19:46:33.411Z,4.90
2018-03-29T19:49:01.049Z,4.60
2018-03-29T19:51:28.552Z,4.90
2018-03-29T19:53:56.047Z,4.65
2018-03-29T19:56:23.579Z,4.90
2018-03-29T19:58:51.081Z,5.68
2018-03-29T20:01:18.580Z,5.30
2018-03-29T20:03:46.172Z,5.45
2018-03-29T20:06:13.678Z,5.45
2018-03-29T20:08:41.226Z,4.90
2018-03-29T20:11:08.735Z,4.95
2018-03-29T20:13:36.252Z,5.20
2018-03-29T20:16:03.790Z,5.78
2018-03-29T20:18:31.490Z,5.10
2018-03-29T20:20:58.999Z,5.10
2018-03-29T20:23:26.529Z,5.45
2018-03-29T20:25:54.045Z,4.60
2018-03-29T20:28:21.568Z,4.50
2018-03-29T20:30:49.104Z,4.70
2018-03-29T20:33:17.312Z,4.60
2018-03-29T20:35:44.946Z,4.35
2018-03-29T20:38:12.477Z,4.60
2018-03-29T20:40:39.988Z,4.47
2018-03-29T20:43:07.526Z,4.97
2018-03-29T20:45:35.055Z,3.92
2018-03-29T20:48:02.567Z,3.28
2018-03-29T20:50:30.143Z,4.12
2018-03-29T20:52:57.671Z,3.50
2018-03-29T20:55:25.310Z,3.40
2018-03-29T20:57:52.805Z,3.60
2018-03-29T21:00:20.402Z,5.18
2018-03-29T21:02:47.973Z,4.62
2018-03-29T21:05:15.510Z,5.60
2018-03-29T21:07:43.047Z,5.60
2018-03-29T21:10:10.569Z,6.03
2018-03-29T21:12:38.080Z,6.05
2018-03-29T21:15:05.647Z,4.90
2018-03-29T21:17:33.154Z,4.78
2018-03-29T21:20:00.723Z,5.90
2018-03-29T21:22:28.240Z,5.40
2018-03-29T21:24:55.746Z,6.05
2018-03-29T21:27:23.281Z,5.90
2018-03-29T21:29:50.818Z,5.25
2018-03-29T21:32:18.300Z,4.72
2018-03-29T21:34:45.920Z,4.97
2018-03-29T21:37:13.427Z,4.55
2018-03-29T21:39:40.994Z,4.75
2018-03-29T21:42:08.596Z,4.90
2018-03-29T21:44:36.116Z,5.68
2018-03-29T21:47:03.856Z,5.40
2018-03-29T21:49:31.598Z,5.35
2018-03-29T21:51:59.128Z,5.50
2018-03-29T21:54:26.621Z,5.68
2018-03-29T21:56:54.132Z,5.25
2018-03-29T21:59:21.662Z,5.85
2018-03-29T22:01:49.273Z,5.30
2018-03-29T22:04:16.918Z,5.00
2018-03-29T22:06:44.473Z,5.35
2018-03-29T22:09:11.989Z,5.70
2018-03-29T22:11:39.559Z,4.72
2018-03-29T22:14:07.047Z,4.87
2018-03-29T22:16:34.537Z,5.25
2018-03-29T22:19:02.095Z,4.60
2018-03-29T22:21:29.597Z,4.60
2018-03-29T22:23:57.125Z,4.80
2018-03-29T22:26:24.651Z,4.85
2018-03-29T22:28:52.431Z,4.50
2018-03-29T22:31:20.098Z,4.60
2018-03-29T22:33:47.698Z,5.22
2018-03-29T22:36:15.321Z,8.27
2018-03-29T22:38:43.000Z,8.90
2018-03-29T22:41:10.534Z,5.68
2018-03-29T22:43:38.027Z,5.47
2018-03-29T22:46:05.559Z,5.15
2018-03-29T22:48:33.073Z,4.97
2018-03-29T22:51:00.596Z,4.97
2018-03-29T22:53:28.082Z,5.62
2018-03-29T22:55:55.588Z,5.07
2018-03-29T22:58:23.085Z,5.30
2018-03-29T23:00:51.439Z,5.37
2018-03-29T23:03:19.018Z,6.00
2018-03-29T23:05:46.539Z,5.15
2018-03-29T23:08:14.036Z,6.05
2018-03-29T23:10:41.523Z,5.97
2018-03-29T23:13:09.040Z,5.75
2018-03-29T23:15:36.553Z,6.30
2018-03-29T23:18:04.056Z,6.00
2018-03-29T23:20:31.565Z,5.65
2018-03-29T23:22:59.079Z,5.85
2018-03-29T23:25:26.583Z,6.65
2018-03-29T23:27:54.105Z,6.68
2018-03-29T23:30:21.608Z,5.70
2018-03-29T23:32:49.122Z,6.93
2018-03-29T23:35:16.614Z,6.00
2018-03-29T23:37:44.119Z,5.45
2018-03-29T23:40:11.613Z,6.53
2018-03-29T23:42:39.154Z,5.57
2018-03-29T23:45:06.666Z,6.65
2018-03-29T23:47:34.159Z,5.90
2018-03-29T23:50:01.670Z,6.55
2018-03-29T23:52:29.187Z,6.53
2018-03-29T23:54:56.661Z,6.72
2018-03-29T23:57:24.185Z,6.90
2018-03-29T23:59:51.701Z,6.65
